createdAt,value
2019-05-17T00:00:50.321Z,10.85
2019-05-17T00:01:50.313Z,10.87
2019-05-17T00:02:50.337Z,10.86
2019-05-17T00:03:50.290Z,10.87
2019-05-17T00:04:50.275Z,10.94
2019-05-17T00:05:50.271Z,10.98
2019-05-17T00:06:50.257Z,10.93
2019-05-17T00:07:50.278Z,11.00
2019-05-17T00:08:50.235Z,10.90
2019-05-17T00:09:50.228Z,11.05
2019-05-17T00:10:50.210Z,10.87
2019-05-17T00:11:50.199Z,10.87
2019-05-17T00:12:50.241Z,10.90
2019-05-17T00:13:50.175Z,10.86
2019-05-17T00:14:50.176Z,10.85
2019-05-17T00:15:50.156Z,10.83
2019-05-17T00:16:50.145Z,10.78
2019-05-17T00:17:50.157Z,10.87
2019-05-17T00:18:50.127Z,10.85
2019-05-17T00:19:50.114Z,10.86
2019-05-17T00:20:50.100Z,10.83
2019-05-17T00:21:50.119Z,10.75
2019-05-17T00:22:50.105Z,10.76
2019-05-17T00:23:50.062Z,10.75
2019-05-17T00:24:50.052Z,10.86
2019-05-17T00:25:50.045Z,10.79
2019-05-17T00:26:50.100Z,10.72
2019-05-17T00:27:50.051Z,10.75
2019-05-17T00:28:50.005Z,10.82
2019-05-17T00:29:50.001Z,10.78
2019-05-17T00:30:49.983Z,10.78
2019-05-17T00:31:49.980Z,10.76
2019-05-17T00:32:49.987Z,10.80
2019-05-17T00:33:49.950Z,10.79
2019-05-17T00:34:49.964Z,10.79
2019-05-17T00:35:49.927Z,10.79
2019-05-17T00:36:49.919Z,10.79
2019-05-17T00:37:49.936Z,10.78
2019-05-17T00:38:51.621Z,10.73
2019-05-17T00:39:49.883Z,10.73
2019-05-17T00:40:49.886Z,10.75
2019-05-17T00:41:49.867Z,10.70
2019-05-17T00:42:49.851Z,10.70
2019-05-17T00:43:49.866Z,10.70
2019-05-17T00:44:49.833Z,10.64
2019-05-17T00:45:49.812Z,10.67
2019-05-17T00:46:49.805Z,10.73
2019-05-17T00:47:49.797Z,10.78
2019-05-17T00:48:49.830Z,10.87
2019-05-17T00:49:49.781Z,10.72
2019-05-17T00:50:53.249Z,10.78
2019-05-17T00:51:49.747Z,10.75
2019-05-17T00:52:49.743Z,10.78
2019-05-17T00:53:49.749Z,10.79
2019-05-17T00:54:49.714Z,10.70
2019-05-17T00:55:49.704Z,10.76
2019-05-17T00:56:49.695Z,10.68
2019-05-17T00:57:49.681Z,10.85
2019-05-17T00:58:49.689Z,10.78
2019-05-17T00:59:49.662Z,10.80
2019-05-17T01:00:49.665Z,10.83
2019-05-17T01:01:49.640Z,10.75
2019-05-17T01:02:49.636Z,10.79
2019-05-17T01:03:49.640Z,10.73
2019-05-17T01:04:49.604Z,10.75
2019-05-17T01:05:49.594Z,10.76
2019-05-17T01:06:49.580Z,10.72
2019-05-17T01:07:49.563Z,10.72
2019-05-17T01:09:00.495Z,10.75
2019-05-17T01:09:50.544Z,10.79
2019-05-17T01:10:49.541Z,10.75
2019-05-17T01:11:49.523Z,10.67
2019-05-17T01:12:49.508Z,10.64
2019-05-17T01:13:49.528Z,10.68
2019-05-17T01:14:49.680Z,10.73
2019-05-17T01:15:49.478Z,10.72
2019-05-17T01:16:49.565Z,10.67
2019-05-17T01:17:49.454Z,10.62
2019-05-17T01:18:49.600Z,10.72
2019-05-17T01:19:49.466Z,10.70
2019-05-17T01:20:49.427Z,10.70
2019-05-17T01:21:49.409Z,10.67
2019-05-17T01:22:49.402Z,10.58
2019-05-17T01:23:49.408Z,10.64
2019-05-17T01:24:49.412Z,10.46
2019-05-17T01:25:49.361Z,10.57
2019-05-17T01:26:49.350Z,10.55
2019-05-17T01:27:49.346Z,10.60
2019-05-17T01:28:49.328Z,10.52
2019-05-17T01:29:49.347Z,10.52
2019-05-17T01:30:49.318Z,10.48
2019-05-17T01:31:49.294Z,10.55
2019-05-17T01:32:49.288Z,10.55
2019-05-17T01:33:49.280Z,10.55
2019-05-17T01:34:49.299Z,10.55
2019-05-17T01:35:49.260Z,10.57
2019-05-17T01:36:49.239Z,10.65
2019-05-17T01:37:49.226Z,10.64
2019-05-17T01:38:49.215Z,10.65
2019-05-17T01:39:49.229Z,10.58
2019-05-17T01:40:49.199Z,10.68
2019-05-17T01:41:49.189Z,10.49
2019-05-17T01:42:49.168Z,10.58
2019-05-17T01:43:49.165Z,10.55
2019-05-17T01:44:49.148Z,10.62
2019-05-17T01:45:49.157Z,10.62
2019-05-17T01:46:49.122Z,10.68
2019-05-17T01:47:49.116Z,10.61
2019-05-17T01:48:49.100Z,10.61
2019-05-17T01:49:49.118Z,10.62
2019-05-17T01:50:49.117Z,10.65
2019-05-17T01:51:49.077Z,10.68
2019-05-17T01:52:49.055Z,10.62
2019-05-17T01:53:49.047Z,10.68
2019-05-17T01:54:49.032Z,10.70
2019-05-17T01:55:49.048Z,10.58
2019-05-17T01:56:49.014Z,10.68
2019-05-17T01:57:49.002Z,10.49
2019-05-17T01:58:48.990Z,10.55
2019-05-17T01:59:48.990Z,10.55
2019-05-17T02:00:49.003Z,10.58
2019-05-17T02:01:48.954Z,10.64
2019-05-17T02:02:48.950Z,10.62
2019-05-17T02:03:48.949Z,10.55
2019-05-17T02:04:48.927Z,10.54
2019-05-17T02:05:48.931Z,10.48
2019-05-17T02:06:48.901Z,10.60
2019-05-17T02:07:48.888Z,10.58
2019-05-17T02:08:48.878Z,10.46
2019-05-17T02:09:48.876Z,10.55
2019-05-17T02:10:48.876Z,10.54
2019-05-17T02:11:48.846Z,10.60
2019-05-17T02:12:49.281Z,10.48
2019-05-17T02:13:48.816Z,10.42
2019-05-17T02:14:48.810Z,10.64
2019-05-17T02:15:48.831Z,10.45
2019-05-17T02:16:48.790Z,10.35
2019-05-17T02:17:48.773Z,10.36
2019-05-17T02:18:48.767Z,10.35
2019-05-17T02:19:48.756Z,10.48
2019-05-17T02:20:48.778Z,10.39
2019-05-17T02:21:48.760Z,10.42
2019-05-17T02:22:48.719Z,10.28
2019-05-17T02:23:48.706Z,10.46
2019-05-17T02:24:48.695Z,10.42
2019-05-17T02:25:48.719Z,10.34
2019-05-17T02:26:48.684Z,10.43
2019-05-17T02:27:48.666Z,10.38
2019-05-17T02:28:48.661Z,10.42
2019-05-17T02:29:48.804Z,10.42
2019-05-17T02:30:48.656Z,10.38
2019-05-17T02:31:48.649Z,10.38
2019-05-17T02:32:48.609Z,10.31
2019-05-17T02:33:48.674Z,10.58
2019-05-17T02:34:48.588Z,10.41
2019-05-17T02:35:48.596Z,10.42
2019-05-17T02:36:48.588Z,10.48
2019-05-17T02:37:48.562Z,10.30
2019-05-17T02:38:48.540Z,10.39
2019-05-17T02:39:58.143Z,10.39
2019-05-17T02:40:49.526Z,10.46
2019-05-17T02:41:48.544Z,10.38
2019-05-17T02:42:48.491Z,10.34
2019-05-17T02:43:48.482Z,10.28
2019-05-17T02:44:48.482Z,10.34
2019-05-17T02:45:48.467Z,10.39
2019-05-17T02:46:48.477Z,10.30
2019-05-17T02:47:48.436Z,10.41
2019-05-17T02:48:48.440Z,10.42
2019-05-17T02:49:48.424Z,10.28
2019-05-17T02:50:48.438Z,10.52
2019-05-17T02:51:48.422Z,10.28
2019-05-17T02:52:48.379Z,10.28
2019-05-17T02:53:48.376Z,10.26
2019-05-17T02:54:48.357Z,10.35
2019-05-17T02:55:48.345Z,10.30
2019-05-17T02:56:48.370Z,10.28
2019-05-17T02:57:48.325Z,10.31
2019-05-17T02:58:48.314Z,10.26
2019-05-17T02:59:48.301Z,10.27
2019-05-17T03:00:48.291Z,10.28
2019-05-17T03:01:48.318Z,10.35
2019-05-17T03:02:48.296Z,10.28
2019-05-17T03:03:48.264Z,10.30
2019-05-17T03:04:48.246Z,10.41
2019-05-17T03:05:48.241Z,10.28
2019-05-17T03:06:48.222Z,10.21
2019-05-17T03:07:48.231Z,10.21
2019-05-17T03:08:48.201Z,10.36
2019-05-17T03:09:48.189Z,10.34
2019-05-17T03:10:48.181Z,10.35
2019-05-17T03:11:48.171Z,10.35
2019-05-17T03:12:48.186Z,10.38
2019-05-17T03:13:48.151Z,10.30
2019-05-17T03:14:48.134Z,10.38
2019-05-17T03:15:48.122Z,10.18
2019-05-17T03:16:48.107Z,10.21
2019-05-17T03:17:48.119Z,10.30
2019-05-17T03:18:48.089Z,10.31
2019-05-17T03:19:48.077Z,10.31
2019-05-17T03:20:48.062Z,10.30
2019-05-17T03:21:48.065Z,10.38
2019-05-17T03:22:48.070Z,10.41
2019-05-17T03:23:48.037Z,10.49
2019-05-17T03:24:48.015Z,10.28
2019-05-17T03:25:48.005Z,10.38
2019-05-17T03:26:47.994Z,10.39
2019-05-17T03:27:48.008Z,10.31
2019-05-17T03:28:47.976Z,10.17
2019-05-17T03:29:47.961Z,10.30
2019-05-17T03:30:47.956Z,10.20
2019-05-17T03:31:53.532Z,10.27
2019-05-17T03:32:49.147Z,10.30
2019-05-17T03:33:47.921Z,10.43
2019-05-17T03:34:47.907Z,10.31
2019-05-17T03:35:47.901Z,10.30
2019-05-17T03:36:47.883Z,10.30
2019-05-17T03:37:47.910Z,10.28
2019-05-17T03:38:48.005Z,10.30
2019-05-17T03:39:47.848Z,10.42
2019-05-17T03:41:07.506Z,10.30
2019-05-17T03:41:48.824Z,10.34
2019-05-17T03:42:47.861Z,10.31
2019-05-17T03:43:47.805Z,10.30
2019-05-17T03:44:47.807Z,10.35
2019-05-17T03:45:47.796Z,10.41
2019-05-17T03:46:47.774Z,10.38
2019-05-17T03:47:47.756Z,10.36
2019-05-17T03:48:47.781Z,10.24
2019-05-17T03:49:47.742Z,10.31
2019-05-17T03:50:47.723Z,10.27
2019-05-17T03:51:47.714Z,10.31
2019-05-17T03:52:47.736Z,10.45
2019-05-17T03:53:47.723Z,10.45
2019-05-17T03:54:47.684Z,10.36
2019-05-17T03:55:47.674Z,10.31
2019-05-17T03:56:47.658Z,10.41
2019-05-17T03:57:47.643Z,10.27
2019-05-17T03:58:47.660Z,10.39
2019-05-17T03:59:47.626Z,10.31
2019-05-17T04:00:47.614Z,10.34
2019-05-17T04:01:47.611Z,10.26
2019-05-17T04:02:47.592Z,10.36
2019-05-17T04:03:47.610Z,10.43
2019-05-17T04:04:47.571Z,10.38
2019-05-17T04:05:47.576Z,10.41
2019-05-17T04:06:47.554Z,10.34
2019-05-17T04:07:47.537Z,10.39
2019-05-17T04:08:47.555Z,10.39
2019-05-17T04:09:47.510Z,10.43
2019-05-17T04:10:47.497Z,10.52
2019-05-17T04:11:47.490Z,10.45
2019-05-17T04:12:47.486Z,10.54
2019-05-17T04:13:47.485Z,10.49
2019-05-17T04:14:47.453Z,10.38
2019-05-17T04:15:47.446Z,10.43
2019-05-17T04:16:47.444Z,10.49
2019-05-17T04:17:47.428Z,10.52
2019-05-17T04:18:47.470Z,10.46
2019-05-17T04:19:47.402Z,10.49
2019-05-17T04:20:47.387Z,10.52
2019-05-17T04:21:47.384Z,10.35
2019-05-17T04:22:47.369Z,10.52
2019-05-17T04:23:47.390Z,10.38
2019-05-17T04:24:47.338Z,10.54
2019-05-17T04:25:47.332Z,10.54
2019-05-17T04:26:47.318Z,10.42
2019-05-17T04:27:47.305Z,10.57
2019-05-17T04:28:47.330Z,10.54
2019-05-17T04:29:47.311Z,10.55
2019-05-17T04:30:47.277Z,10.49
2019-05-17T04:31:47.259Z,10.46
2019-05-17T04:32:47.253Z,10.60
2019-05-17T04:33:47.273Z,10.60
2019-05-17T04:34:47.253Z,10.49
2019-05-17T04:35:47.229Z,10.48
2019-05-17T04:36:47.204Z,10.55
2019-05-17T04:37:47.199Z,10.61
2019-05-17T04:38:47.206Z,10.61
2019-05-17T04:39:47.198Z,10.68
2019-05-17T04:40:47.162Z,10.58
2019-05-17T04:41:51.123Z,10.62
2019-05-17T04:42:48.136Z,10.64
2019-05-17T04:43:47.125Z,10.68
2019-05-17T04:44:47.143Z,10.68
2019-05-17T04:45:47.101Z,10.60
2019-05-17T04:46:47.094Z,10.65
2019-05-17T04:47:47.082Z,10.79
2019-05-17T04:48:47.071Z,10.62
2019-05-17T04:49:47.101Z,10.68
2019-05-17T04:50:47.051Z,10.76
2019-05-17T04:51:47.038Z,10.73
2019-05-17T04:52:47.023Z,10.76
2019-05-17T04:53:47.018Z,10.78
2019-05-17T04:54:47.028Z,10.76
2019-05-17T04:55:46.992Z,10.91
2019-05-17T04:56:46.979Z,10.73
2019-05-17T04:57:46.975Z,10.78
2019-05-17T04:58:50.062Z,10.83
2019-05-17T04:59:46.978Z,10.73
2019-05-17T05:00:46.958Z,10.90
2019-05-17T05:01:46.921Z,10.83
2019-05-17T05:02:46.927Z,10.90
2019-05-17T05:03:46.901Z,10.82
2019-05-17T05:04:46.888Z,10.87
2019-05-17T05:05:46.906Z,11.03
2019-05-17T05:06:46.881Z,10.91
2019-05-17T05:07:46.870Z,10.85
2019-05-17T05:08:46.854Z,10.95
2019-05-17T05:09:46.839Z,10.93
2019-05-17T05:10:46.845Z,10.95
2019-05-17T05:11:57.030Z,11.09
2019-05-17T05:12:47.803Z,11.03
2019-05-17T05:13:46.789Z,11.11
2019-05-17T05:14:46.773Z,11.13
2019-05-17T05:15:46.794Z,11.13
2019-05-17T05:16:46.753Z,11.00
2019-05-17T05:17:46.743Z,11.12
2019-05-17T05:18:46.736Z,11.13
2019-05-17T05:19:46.731Z,11.23
2019-05-17T05:20:46.745Z,11.09
2019-05-17T05:21:46.697Z,11.30
2019-05-17T05:22:46.695Z,11.33
2019-05-17T05:23:46.675Z,11.22
2019-05-17T05:24:46.673Z,11.18
2019-05-17T05:25:46.695Z,11.40
2019-05-17T05:26:46.652Z,11.23
2019-05-17T05:27:46.631Z,11.23
2019-05-17T05:28:49.580Z,11.22
2019-05-17T05:29:46.625Z,11.36
2019-05-17T05:30:46.596Z,11.30
2019-05-17T05:31:46.617Z,11.33
2019-05-17T05:32:46.575Z,11.19
2019-05-17T05:33:46.564Z,11.22
2019-05-17T05:34:46.577Z,11.18
2019-05-17T05:35:46.562Z,11.08
2019-05-17T05:36:46.527Z,11.16
2019-05-17T05:37:46.524Z,11.16
2019-05-17T05:38:46.505Z,11.00
2019-05-17T05:39:46.495Z,11.08
2019-05-17T05:40:46.524Z,11.20
2019-05-17T05:41:46.474Z,11.15
2019-05-17T05:42:46.462Z,11.19
2019-05-17T05:43:46.455Z,11.12
2019-05-17T05:44:46.439Z,10.98
2019-05-17T05:45:46.454Z,11.03
2019-05-17T05:46:46.419Z,11.09
2019-05-17T05:47:46.407Z,11.08
2019-05-17T05:48:46.413Z,11.11
2019-05-17T05:49:46.393Z,11.11
2019-05-17T05:50:46.405Z,11.08
2019-05-17T05:51:46.392Z,11.13
2019-05-17T05:52:46.354Z,11.12
2019-05-17T05:53:46.337Z,11.13
2019-05-17T05:54:46.339Z,11.08
2019-05-17T05:55:46.317Z,11.15
2019-05-17T05:56:46.331Z,11.12
2019-05-17T05:57:46.295Z,11.19
2019-05-17T05:58:46.287Z,11.15
2019-05-17T05:59:46.276Z,11.03
2019-05-17T06:00:46.279Z,11.30
2019-05-17T06:01:46.277Z,11.09
2019-05-17T06:02:46.236Z,11.20
2019-05-17T06:03:46.225Z,11.27
2019-05-17T06:04:46.229Z,11.41
2019-05-17T06:05:46.200Z,11.33
2019-05-17T06:06:46.234Z,11.38
2019-05-17T06:07:46.184Z,11.31
2019-05-17T06:08:46.171Z,11.40
2019-05-17T06:09:46.158Z,11.38
2019-05-17T06:10:46.149Z,11.36
2019-05-17T06:11:46.167Z,11.37
2019-05-17T06:12:46.124Z,11.36
2019-05-17T06:13:46.122Z,11.40
2019-05-17T06:14:46.102Z,11.36
2019-05-17T06:15:46.098Z,11.37
2019-05-17T06:16:47.721Z,11.40
2019-05-17T06:17:46.094Z,11.49
2019-05-17T06:18:46.061Z,11.52
2019-05-17T06:19:46.049Z,11.45
2019-05-17T06:20:46.034Z,11.59
2019-05-17T06:21:46.026Z,11.54
2019-05-17T06:22:46.044Z,11.64
2019-05-17T06:23:46.001Z,11.62
2019-05-17T06:24:45.994Z,11.76
2019-05-17T06:25:45.986Z,11.71
2019-05-17T06:26:45.969Z,11.76
2019-05-17T06:27:45.980Z,11.71
2019-05-17T06:28:45.967Z,11.73
2019-05-17T06:29:45.943Z,11.67
2019-05-17T06:30:45.926Z,11.74
2019-05-17T06:31:45.910Z,11.73
2019-05-17T06:32:45.922Z,11.71
2019-05-17T06:33:45.945Z,11.71
2019-05-17T06:34:45.881Z,11.84
2019-05-17T06:35:45.897Z,11.69
2019-05-17T06:36:45.870Z,11.66
2019-05-17T06:37:45.854Z,11.88
2019-05-17T06:38:45.866Z,11.74
2019-05-17T06:39:45.840Z,11.85
2019-05-17T06:40:45.811Z,11.77
2019-05-17T06:41:45.932Z,11.85
2019-05-17T06:42:45.873Z,11.77
2019-05-17T06:43:45.784Z,11.73
2019-05-17T06:44:45.797Z,11.80
2019-05-17T06:45:45.779Z,11.76
2019-05-17T06:46:45.742Z,11.93
2019-05-17T06:47:45.823Z,11.79
2019-05-17T06:48:45.722Z,11.85
2019-05-17T06:49:45.819Z,11.88
2019-05-17T06:50:45.700Z,11.88
2019-05-17T06:51:45.697Z,11.87
2019-05-17T06:52:45.683Z,11.89
2019-05-17T06:53:45.728Z,11.93
2019-05-17T06:54:45.659Z,11.88
2019-05-17T06:55:45.655Z,11.85
2019-05-17T06:56:45.635Z,11.82
2019-05-17T06:57:45.621Z,11.84
2019-05-17T06:58:45.631Z,11.73
2019-05-17T06:59:45.601Z,11.84
2019-05-17T07:00:45.588Z,11.84
2019-05-17T07:01:45.581Z,11.88
2019-05-17T07:02:45.575Z,11.82
2019-05-17T07:03:45.590Z,11.74
2019-05-17T07:04:45.546Z,11.74
2019-05-17T07:05:45.532Z,11.76
2019-05-17T07:06:45.523Z,11.76
2019-05-17T07:07:45.508Z,11.76
2019-05-17T07:08:45.532Z,11.85
2019-05-17T07:09:45.507Z,11.82
2019-05-17T07:10:45.492Z,11.69
2019-05-17T07:11:45.471Z,11.79
2019-05-17T07:12:56.042Z,11.80
2019-05-17T07:13:46.461Z,11.89
2019-05-17T07:14:45.457Z,11.77
2019-05-17T07:15:47.984Z,11.77
2019-05-17T07:16:46.414Z,11.70
2019-05-17T07:17:45.404Z,11.82
2019-05-17T07:18:45.389Z,11.69
2019-05-17T07:19:45.404Z,11.74
2019-05-17T07:20:45.375Z,11.79
2019-05-17T07:21:45.366Z,11.74
2019-05-17T07:22:45.353Z,11.82
2019-05-17T07:23:45.365Z,11.82
2019-05-17T07:24:45.376Z,11.76
2019-05-17T07:25:45.323Z,11.79
2019-05-17T07:26:45.303Z,11.70
2019-05-17T07:27:46.040Z,11.82
2019-05-17T07:28:45.287Z,11.73
2019-05-17T07:29:45.298Z,11.73
2019-05-17T07:30:45.298Z,11.73
2019-05-17T07:31:45.252Z,11.89
2019-05-17T07:32:45.248Z,12.00
2019-05-17T07:33:45.222Z,11.87
2019-05-17T07:34:45.242Z,11.80
2019-05-17T07:35:45.230Z,11.85
2019-05-17T07:36:45.187Z,11.96
2019-05-17T07:37:45.183Z,11.93
2019-05-17T07:38:45.290Z,11.88
2019-05-17T07:39:57.883Z,12.00
2019-05-17T07:40:46.152Z,11.99
2019-05-17T07:41:45.132Z,12.18
2019-05-17T07:42:45.149Z,12.15
2019-05-17T07:43:45.111Z,12.11
2019-05-17T07:44:45.223Z,12.05
2019-05-17T07:45:45.113Z,12.29
2019-05-17T07:46:45.077Z,12.28
2019-05-17T07:47:45.089Z,12.21
2019-05-17T07:48:45.073Z,12.30
2019-05-17T07:49:45.042Z,12.18
2019-05-17T07:50:45.156Z,12.18
2019-05-17T07:51:45.024Z,12.28
2019-05-17T07:52:45.025Z,12.25
2019-05-17T07:53:45.007Z,12.18
2019-05-17T07:54:45.038Z,12.23
2019-05-17T07:55:45.014Z,12.28
2019-05-17T07:56:44.970Z,12.29
2019-05-17T07:57:44.966Z,12.30
2019-05-17T07:58:44.955Z,12.29
2019-05-17T07:59:44.944Z,12.48
2019-05-17T08:00:45.016Z,12.47
2019-05-17T08:01:44.915Z,12.51
2019-05-17T08:02:44.906Z,12.55
2019-05-17T08:03:44.904Z,12.62
2019-05-17T08:04:44.880Z,12.55
2019-05-17T08:05:44.874Z,12.48
2019-05-17T08:06:44.887Z,12.53
2019-05-17T08:07:44.850Z,12.59
2019-05-17T08:08:44.852Z,12.54
2019-05-17T08:09:44.824Z,12.48
2019-05-17T08:10:44.837Z,12.50
2019-05-17T08:11:44.820Z,12.53
2019-05-17T08:12:44.805Z,12.47
2019-05-17T08:13:44.775Z,12.48
2019-05-17T08:14:44.778Z,12.58
2019-05-17T08:15:44.786Z,12.63
2019-05-17T08:16:44.777Z,12.66
2019-05-17T08:17:44.731Z,12.54
2019-05-17T08:18:44.720Z,12.63
2019-05-17T08:19:44.711Z,12.59
2019-05-17T08:20:44.698Z,12.54
2019-05-17T08:21:44.717Z,12.55
2019-05-17T08:22:44.680Z,12.63
2019-05-17T08:23:44.680Z,12.66
2019-05-17T08:24:44.656Z,12.59
2019-05-17T08:25:52.635Z,12.58
2019-05-17T08:26:45.658Z,12.62
2019-05-17T08:27:44.618Z,12.53
2019-05-17T08:28:44.613Z,12.50
2019-05-17T08:29:44.595Z,12.51
2019-05-17T08:30:44.589Z,12.47
2019-05-17T08:31:44.602Z,12.40
2019-05-17T08:32:44.562Z,12.33
2019-05-17T08:33:44.552Z,12.36
2019-05-17T08:34:44.539Z,12.36
2019-05-17T08:35:44.526Z,12.26
2019-05-17T08:36:44.544Z,12.28
2019-05-17T08:37:44.515Z,12.21
2019-05-17T08:38:44.501Z,12.13
2019-05-17T08:39:44.487Z,12.26
2019-05-17T08:40:44.476Z,12.18
2019-05-17T08:41:44.493Z,12.28
2019-05-17T08:42:44.449Z,12.28
2019-05-17T08:43:46.951Z,12.38
2019-05-17T08:44:44.433Z,12.25
2019-05-17T08:45:44.419Z,12.26
2019-05-17T08:46:44.404Z,12.21
2019-05-17T08:47:44.423Z,12.10
2019-05-17T08:48:44.383Z,12.28
2019-05-17T08:49:44.374Z,12.26
2019-05-17T08:50:44.360Z,12.23
2019-05-17T08:51:44.353Z,12.26
2019-05-17T08:52:44.386Z,12.32
2019-05-17T08:53:44.339Z,12.32
2019-05-17T08:54:44.313Z,12.40
2019-05-17T08:55:44.311Z,12.43
2019-05-17T08:56:44.294Z,12.58
2019-05-17T08:57:44.354Z,12.41
2019-05-17T08:58:44.280Z,12.41
2019-05-17T09:00:45.365Z,12.43
2019-05-17T09:01:44.239Z,12.48
2019-05-17T09:02:44.268Z,12.51
2019-05-17T09:03:44.261Z,12.41
2019-05-17T09:04:44.208Z,12.46
2019-05-17T09:05:44.250Z,12.53
2019-05-17T09:06:44.183Z,12.54
2019-05-17T09:07:44.222Z,12.61
2019-05-17T09:08:44.163Z,12.55
2019-05-17T09:09:44.157Z,12.47
2019-05-17T09:10:44.141Z,12.43
2019-05-17T09:11:44.123Z,12.35
2019-05-17T09:12:44.154Z,12.40
2019-05-17T09:13:57.270Z,12.44
2019-05-17T09:14:45.096Z,12.47
2019-05-17T09:15:44.094Z,12.32
2019-05-17T09:16:44.093Z,12.43
2019-05-17T09:17:44.099Z,12.32
2019-05-17T09:18:44.058Z,12.43
2019-05-17T09:19:44.037Z,12.44
2019-05-17T09:20:44.025Z,12.36
2019-05-17T09:21:44.015Z,12.35
2019-05-17T09:22:44.038Z,12.43
2019-05-17T09:23:44.019Z,12.43
2019-05-17T09:24:43.990Z,12.35
2019-05-17T09:25:43.978Z,12.25
2019-05-17T09:26:43.970Z,12.36
2019-05-17T09:27:43.961Z,12.29
2019-05-17T09:28:43.977Z,12.38
2019-05-17T09:29:43.933Z,12.32
2019-05-17T09:30:43.924Z,12.32
2019-05-17T09:31:43.918Z,12.33
2019-05-17T09:32:43.898Z,12.35
2019-05-17T09:33:43.912Z,12.32
2019-05-17T09:34:43.897Z,12.51
2019-05-17T09:35:43.872Z,12.38
2019-05-17T09:36:43.855Z,12.41
2019-05-17T09:37:43.860Z,12.32
2019-05-17T09:38:43.860Z,12.48
2019-05-17T09:39:43.817Z,12.41
2019-05-17T09:40:43.817Z,12.33
2019-05-17T09:41:43.794Z,12.41
2019-05-17T09:42:43.803Z,12.38
2019-05-17T09:43:43.794Z,12.40
2019-05-17T09:44:43.766Z,12.55
2019-05-17T09:45:43.767Z,12.44
2019-05-17T09:46:43.741Z,12.61
2019-05-17T09:47:43.735Z,12.72
2019-05-17T09:48:46.826Z,12.62
2019-05-17T09:49:43.702Z,12.83
2019-05-17T09:50:43.725Z,12.76
2019-05-17T09:51:43.682Z,12.71
2019-05-17T09:52:43.676Z,12.79
2019-05-17T09:53:43.713Z,12.93
2019-05-17T09:54:45.489Z,13.01
2019-05-17T09:55:43.640Z,12.90
2019-05-17T09:56:43.625Z,12.90
2019-05-17T09:57:43.640Z,12.95
2019-05-17T09:58:43.631Z,13.05
2019-05-17T09:59:43.614Z,12.98
2019-05-17T10:00:43.599Z,12.99
2019-05-17T10:01:43.573Z,12.99
2019-05-17T10:02:43.568Z,12.91
2019-05-17T10:03:43.555Z,12.98
2019-05-17T10:04:43.576Z,12.88
2019-05-17T10:05:43.532Z,12.80
2019-05-17T10:06:43.510Z,12.88
2019-05-17T10:07:43.503Z,12.95
2019-05-17T10:08:43.486Z,12.91
2019-05-17T10:09:43.516Z,12.90
2019-05-17T10:10:43.471Z,12.84
2019-05-17T10:11:43.461Z,12.87
2019-05-17T10:12:43.443Z,12.88
2019-05-17T10:13:43.430Z,12.87
2019-05-17T10:14:43.459Z,12.84
2019-05-17T10:15:43.406Z,12.84
2019-05-17T10:16:43.396Z,12.77
2019-05-17T10:17:43.396Z,12.77
2019-05-17T10:18:43.376Z,12.71
2019-05-17T10:19:43.390Z,12.71
2019-05-17T10:20:43.350Z,12.83
2019-05-17T10:21:43.335Z,12.80
2019-05-17T10:22:43.334Z,12.80
2019-05-17T10:23:43.321Z,12.73
2019-05-17T10:24:43.332Z,12.81
2019-05-17T10:25:43.300Z,12.79
2019-05-17T10:26:43.308Z,12.87
2019-05-17T10:27:43.272Z,12.90
2019-05-17T10:28:43.256Z,12.95
2019-05-17T10:29:43.285Z,12.95
2019-05-17T10:30:43.249Z,12.87
2019-05-17T10:31:43.230Z,12.88
2019-05-17T10:32:43.230Z,12.87
2019-05-17T10:33:43.209Z,12.91
2019-05-17T10:34:43.220Z,13.05
2019-05-17T10:35:43.197Z,13.01
2019-05-17T10:36:43.167Z,12.95
2019-05-17T10:37:43.157Z,13.08
2019-05-17T10:38:43.152Z,13.14
2019-05-17T10:39:43.142Z,13.13
2019-05-17T10:40:43.162Z,13.17
2019-05-17T10:41:43.113Z,13.29
2019-05-17T10:42:43.110Z,13.27
2019-05-17T10:43:43.088Z,13.35
2019-05-17T10:44:47.628Z,13.35
2019-05-17T10:45:43.086Z,13.46
2019-05-17T10:46:43.056Z,13.51
2019-05-17T10:47:43.043Z,13.47
2019-05-17T10:48:43.037Z,13.47
2019-05-17T10:49:43.027Z,13.57
2019-05-17T10:50:43.037Z,13.40
2019-05-17T10:51:42.994Z,13.53
2019-05-17T10:52:42.986Z,13.58
2019-05-17T10:53:42.972Z,13.64
2019-05-17T10:54:42.973Z,13.53
2019-05-17T10:55:42.994Z,13.55
2019-05-17T10:56:42.944Z,13.57
2019-05-17T10:57:42.937Z,13.60
2019-05-17T10:58:43.824Z,13.46
2019-05-17T10:59:42.901Z,13.46
2019-05-17T11:00:42.931Z,13.51
2019-05-17T11:01:42.882Z,13.54
2019-05-17T11:02:42.884Z,13.45
2019-05-17T11:03:42.856Z,13.47
2019-05-17T11:04:42.848Z,13.43
2019-05-17T11:05:42.870Z,13.49
2019-05-17T11:06:42.824Z,13.53
2019-05-17T11:07:42.828Z,13.46
2019-05-17T11:08:42.816Z,13.47
2019-05-17T11:09:42.789Z,13.53
2019-05-17T11:10:42.790Z,13.43
2019-05-17T11:11:42.802Z,13.43
2019-05-17T11:12:42.757Z,13.49
2019-05-17T11:13:42.745Z,13.53
2019-05-17T11:14:50.767Z,13.47
2019-05-17T11:15:43.725Z,13.61
2019-05-17T11:16:42.751Z,13.47
2019-05-17T11:17:42.705Z,13.55
2019-05-17T11:18:42.688Z,13.43
2019-05-17T11:19:42.672Z,13.51
2019-05-17T11:20:42.666Z,13.53
2019-05-17T11:21:42.677Z,13.38
2019-05-17T11:22:42.646Z,13.49
2019-05-17T11:23:42.642Z,13.47
2019-05-17T11:24:42.614Z,13.51
2019-05-17T11:25:45.814Z,13.38
2019-05-17T11:26:42.615Z,13.38
2019-05-17T11:27:42.605Z,13.24
2019-05-17T11:28:42.574Z,13.38
2019-05-17T11:29:42.575Z,13.29
2019-05-17T11:30:42.549Z,13.27
2019-05-17T11:31:42.566Z,13.38
2019-05-17T11:32:42.523Z,13.39
2019-05-17T11:33:42.516Z,13.19
2019-05-17T11:34:42.508Z,13.23
2019-05-17T11:35:42.487Z,13.21
2019-05-17T11:36:42.506Z,13.20
2019-05-17T11:37:42.470Z,13.08
2019-05-17T11:38:42.468Z,13.14
2019-05-17T11:39:42.450Z,13.16
2019-05-17T11:40:42.497Z,13.14
2019-05-17T11:41:42.445Z,13.16
2019-05-17T11:42:42.426Z,13.01
2019-05-17T11:43:42.497Z,13.19
2019-05-17T11:44:42.404Z,13.13
2019-05-17T11:45:42.379Z,13.06
2019-05-17T11:46:42.395Z,13.13
2019-05-17T11:47:42.394Z,13.11
2019-05-17T11:48:42.369Z,13.11
2019-05-17T11:49:42.343Z,13.20
2019-05-17T11:50:42.364Z,13.19
2019-05-17T11:51:42.358Z,13.19
2019-05-17T11:52:42.389Z,13.17
2019-05-17T11:53:42.310Z,13.27
2019-05-17T11:54:42.319Z,13.29
2019-05-17T11:55:42.297Z,13.26
2019-05-17T11:56:42.288Z,13.32
2019-05-17T11:57:42.316Z,13.16
2019-05-17T11:58:42.269Z,13.32
2019-05-17T11:59:42.252Z,13.24
2019-05-17T12:00:42.243Z,13.32
2019-05-17T12:01:42.225Z,13.40
2019-05-17T12:02:42.275Z,13.32
2019-05-17T12:03:42.211Z,13.30
2019-05-17T12:04:42.214Z,13.36
2019-05-17T12:05:42.176Z,13.29
2019-05-17T12:06:42.203Z,13.32
2019-05-17T12:07:42.264Z,13.43
2019-05-17T12:08:42.154Z,13.39
2019-05-17T12:09:42.197Z,13.38
2019-05-17T12:10:42.182Z,13.27
2019-05-17T12:11:42.114Z,13.30
2019-05-17T12:12:42.139Z,13.45
2019-05-17T12:13:43.653Z,13.53
2019-05-17T12:14:42.097Z,13.57
2019-05-17T12:15:45.294Z,13.45
2019-05-17T12:16:42.040Z,13.51
2019-05-17T12:17:42.052Z,13.47
2019-05-17T12:18:42.005Z,13.49
2019-05-17T12:19:41.984Z,13.38
2019-05-17T12:20:41.985Z,13.45
2019-05-17T12:21:41.966Z,13.46
2019-05-17T12:22:41.978Z,13.42
2019-05-17T12:23:41.945Z,13.57
2019-05-17T12:24:41.932Z,13.51
2019-05-17T12:25:41.920Z,13.64
2019-05-17T12:26:41.915Z,13.57
2019-05-17T12:27:41.930Z,13.65
2019-05-17T12:28:41.904Z,13.75
2019-05-17T12:29:41.880Z,13.58
2019-05-17T12:30:41.874Z,13.75
2019-05-17T12:31:41.854Z,13.86
2019-05-17T12:32:41.845Z,13.85
2019-05-17T12:33:41.856Z,13.76
2019-05-17T12:34:41.818Z,13.83
2019-05-17T12:35:41.809Z,13.79
2019-05-17T12:36:41.808Z,13.96
2019-05-17T12:37:42.554Z,13.97
2019-05-17T12:38:41.801Z,14.12
2019-05-17T12:39:41.775Z,14.04
2019-05-17T12:40:41.749Z,14.00
2019-05-17T12:41:41.758Z,14.11
2019-05-17T12:42:41.726Z,14.08
2019-05-17T12:43:41.738Z,14.12
2019-05-17T12:44:41.713Z,14.15
2019-05-17T12:45:41.692Z,14.22
2019-05-17T12:46:41.676Z,14.13
2019-05-17T12:47:41.755Z,14.16
2019-05-17T12:48:41.689Z,14.21
2019-05-17T12:49:41.653Z,14.37
2019-05-17T12:50:41.636Z,14.51
2019-05-17T12:51:41.642Z,14.66
2019-05-17T12:52:41.628Z,14.83
2019-05-17T12:53:41.658Z,14.89